<?xml version="1.0" encoding="UTF-8" standalone="no" ?>
<gpx xmlns="http://www.topografix.com/GPX/1/1" xmlns:xsi="http://www.w3.org/2001/XMLSchema-instance" xsi:schemaLocation="http://www.topografix.com/GPX/1/1 http://www.topografix.com/GPX/1/1/gpx.xsd" version="1.1" creator="VisuGPX - https://www.visugpx.com">
  <metadata>
    <name>Lacs d\'Ardiden J2</name>
    <desc><![CDATA[Troisième jour rando bivouac Cabane Lagües]]></desc>
  </metadata>
  <trk>
    <name><![CDATA[Lacs ardiden j3]]></name>
    <trkseg>
      <trkpt lat="42.86151" lon="-0.05916">
        <ele>2051</ele>
        <time>2015-08-10T08:25:35Z</time>
      </trkpt>
      <trkpt lat="42.86151" lon="-0.05916">
        <ele>2051</ele>
        <time>2015-08-10T08:25:36Z</time>
      </trkpt>
      <trkpt lat="42.86089" lon="-0.05787">
        <ele>2040</ele>
        <time>2015-08-10T08:25:46Z</time>
      </trkpt>
      <trkpt lat="42.86084" lon="-0.05798">
        <ele>2040</ele>
        <time>2015-08-10T08:25:48Z</time>
      </trkpt>
      <trkpt lat="42.86091" lon="-0.05767">
        <ele>2040</ele>
        <time>2015-08-10T08:25:57Z</time>
      </trkpt>
      <trkpt lat="42.86109" lon="-0.05773">
        <ele>2039</ele>
        <time>2015-08-10T08:26:08Z</time>
      </trkpt>
      <trkpt lat="42.86117" lon="-0.05764">
        <ele>2039</ele>
        <time>2015-08-10T08:26:19Z</time>
      </trkpt>
      <trkpt lat="42.86093" lon="-0.05769">
        <ele>2040</ele>
        <time>2015-08-10T08:26:26Z</time>
      </trkpt>
      <trkpt lat="42.86097" lon="-0.0578">
        <ele>2040</ele>
        <time>2015-08-10T08:39:27Z</time>
      </trkpt>
      <trkpt lat="42.86101" lon="-0.05792">
        <ele>2040</ele>
        <time>2015-08-10T08:39:36Z</time>
      </trkpt>
      <trkpt lat="42.86107" lon="-0.05804">
        <ele>2040</ele>
        <time>2015-08-10T08:39:44Z</time>
      </trkpt>
      <trkpt lat="42.86111" lon="-0.05816">
        <ele>2040</ele>
        <time>2015-08-10T08:39:52Z</time>
      </trkpt>
      <trkpt lat="42.86109" lon="-0.05828">
        <ele>2040</ele>
        <time>2015-08-10T08:40:10Z</time>
      </trkpt>
      <trkpt lat="42.861" lon="-0.05833">
        <ele>2041</ele>
        <time>2015-08-10T08:40:18Z</time>
      </trkpt>
      <trkpt lat="42.86091" lon="-0.05836">
        <ele>2043</ele>
        <time>2015-08-10T08:40:29Z</time>
      </trkpt>
      <trkpt lat="42.86082" lon="-0.05834">
        <ele>2043</ele>
        <time>2015-08-10T08:40:38Z</time>
      </trkpt>
      <trkpt lat="42.86073" lon="-0.05831">
        <ele>2042</ele>
        <time>2015-08-10T08:40:48Z</time>
      </trkpt>
      <trkpt lat="42.86063" lon="-0.0583">
        <ele>2042</ele>
        <time>2015-08-10T08:40:55Z</time>
      </trkpt>
      <trkpt lat="42.86054" lon="-0.05832">
        <ele>2042</ele>
        <time>2015-08-10T08:41:04Z</time>
      </trkpt>
      <trkpt lat="42.86045" lon="-0.05831">
        <ele>2043</ele>
        <time>2015-08-10T08:41:13Z</time>
      </trkpt>
      <trkpt lat="42.86035" lon="-0.05836">
        <ele>2048</ele>
        <time>2015-08-10T08:41:20Z</time>
      </trkpt>
      <trkpt lat="42.86026" lon="-0.05838">
        <ele>2048</ele>
        <time>2015-08-10T08:41:29Z</time>
      </trkpt>
      <trkpt lat="42.86016" lon="-0.05841">
        <ele>2048</ele>
        <time>2015-08-10T08:41:36Z</time>
      </trkpt>
      <trkpt lat="42.86006" lon="-0.05839">
        <ele>2047</ele>
        <time>2015-08-10T08:41:45Z</time>
      </trkpt>
      <trkpt lat="42.85997" lon="-0.05835">
        <ele>2047</ele>
        <time>2015-08-10T08:41:52Z</time>
      </trkpt>
      <trkpt lat="42.85988" lon="-0.05832">
        <ele>2046</ele>
        <time>2015-08-10T08:42:00Z</time>
      </trkpt>
      <trkpt lat="42.85979" lon="-0.05832">
        <ele>2046</ele>
        <time>2015-08-10T08:42:07Z</time>
      </trkpt>
      <trkpt lat="42.85971" lon="-0.05823">
        <ele>2046</ele>
        <time>2015-08-10T08:42:14Z</time>
      </trkpt>
      <trkpt lat="42.85962" lon="-0.05819">
        <ele>2046</ele>
        <time>2015-08-10T08:42:27Z</time>
      </trkpt>
      <trkpt lat="42.85953" lon="-0.05815">
        <ele>2047</ele>
        <time>2015-08-10T08:42:35Z</time>
      </trkpt>
      <trkpt lat="42.85943" lon="-0.05812">
        <ele>2047</ele>
        <time>2015-08-10T08:42:43Z</time>
      </trkpt>
      <trkpt lat="42.85934" lon="-0.05806">
        <ele>2047</ele>
        <time>2015-08-10T08:42:51Z</time>
      </trkpt>
      <trkpt lat="42.85924" lon="-0.058">
        <ele>2047</ele>
        <time>2015-08-10T08:42:58Z</time>
      </trkpt>
      <trkpt lat="42.85916" lon="-0.05797">
        <ele>2054</ele>
        <time>2015-08-10T08:43:06Z</time>
      </trkpt>
      <trkpt lat="42.85907" lon="-0.05792">
        <ele>2055</ele>
        <time>2015-08-10T08:43:13Z</time>
      </trkpt>
      <trkpt lat="42.85898" lon="-0.05787">
        <ele>2055</ele>
        <time>2015-08-10T08:43:20Z</time>
      </trkpt>
      <trkpt lat="42.85889" lon="-0.05784">
        <ele>2056</ele>
        <time>2015-08-10T08:43:29Z</time>
      </trkpt>
      <trkpt lat="42.8588" lon="-0.05789">
        <ele>2057</ele>
        <time>2015-08-10T08:43:49Z</time>
      </trkpt>
      <trkpt lat="42.8587" lon="-0.05791">
        <ele>2058</ele>
        <time>2015-08-10T08:44:05Z</time>
      </trkpt>
      <trkpt lat="42.85862" lon="-0.05786">
        <ele>2059</ele>
        <time>2015-08-10T08:44:22Z</time>
      </trkpt>
      <trkpt lat="42.85853" lon="-0.05783">
        <ele>2060</ele>
        <time>2015-08-10T08:44:38Z</time>
      </trkpt>
      <trkpt lat="42.85844" lon="-0.05784">
        <ele>2060</ele>
        <time>2015-08-10T08:45:07Z</time>
      </trkpt>
      <trkpt lat="42.85835" lon="-0.05782">
        <ele>2061</ele>
        <time>2015-08-10T08:45:26Z</time>
      </trkpt>
      <trkpt lat="42.85826" lon="-0.05777">
        <ele>2072</ele>
        <time>2015-08-10T08:45:37Z</time>
      </trkpt>
      <trkpt lat="42.85817" lon="-0.05775">
        <ele>2073</ele>
        <time>2015-08-10T08:45:54Z</time>
      </trkpt>
      <trkpt lat="42.85808" lon="-0.05769">
        <ele>2073</ele>
        <time>2015-08-10T08:46:08Z</time>
      </trkpt>
      <trkpt lat="42.85799" lon="-0.05769">
        <ele>2075</ele>
        <time>2015-08-10T08:46:24Z</time>
      </trkpt>
      <trkpt lat="42.8579" lon="-0.05769">
        <ele>2076</ele>
        <time>2015-08-10T08:46:54Z</time>
      </trkpt>
      <trkpt lat="42.8578" lon="-0.05773">
        <ele>2077</ele>
        <time>2015-08-10T08:47:19Z</time>
      </trkpt>
      <trkpt lat="42.85772" lon="-0.0578">
        <ele>2078</ele>
        <time>2015-08-10T08:47:54Z</time>
      </trkpt>
      <trkpt lat="42.85766" lon="-0.05789">
        <ele>2080</ele>
        <time>2015-08-10T08:48:13Z</time>
      </trkpt>
      <trkpt lat="42.85756" lon="-0.0579">
        <ele>2080</ele>
        <time>2015-08-10T08:48:34Z</time>
      </trkpt>
      <trkpt lat="42.85747" lon="-0.05795">
        <ele>2089</ele>
        <time>2015-08-10T08:48:55Z</time>
      </trkpt>
      <trkpt lat="42.85739" lon="-0.05798">
        <ele>2090</ele>
        <time>2015-08-10T08:49:09Z</time>
      </trkpt>
      <trkpt lat="42.8573" lon="-0.05801">
        <ele>2090</ele>
        <time>2015-08-10T08:49:35Z</time>
      </trkpt>
      <trkpt lat="42.85721" lon="-0.05805">
        <ele>2091</ele>
        <time>2015-08-10T08:50:04Z</time>
      </trkpt>
      <trkpt lat="42.85712" lon="-0.05807">
        <ele>2091</ele>
        <time>2015-08-10T08:50:21Z</time>
      </trkpt>
      <trkpt lat="42.85703" lon="-0.05809">
        <ele>2091</ele>
        <time>2015-08-10T08:50:37Z</time>
      </trkpt>
      <trkpt lat="42.85693" lon="-0.05808">
        <ele>2092</ele>
        <time>2015-08-10T08:50:53Z</time>
      </trkpt>
      <trkpt lat="42.85685" lon="-0.05803">
        <ele>2092</ele>
        <time>2015-08-10T08:51:04Z</time>
      </trkpt>
      <trkpt lat="42.85677" lon="-0.05797">
        <ele>2091</ele>
        <time>2015-08-10T08:51:20Z</time>
      </trkpt>
      <trkpt lat="42.8567" lon="-0.05789">
        <ele>2091</ele>
        <time>2015-08-10T08:51:31Z</time>
      </trkpt>
      <trkpt lat="42.85661" lon="-0.05795">
        <ele>2094</ele>
        <time>2015-08-10T08:52:04Z</time>
      </trkpt>
      <trkpt lat="42.85657" lon="-0.05807">
        <ele>2095</ele>
        <time>2015-08-10T08:52:16Z</time>
      </trkpt>
      <trkpt lat="42.85648" lon="-0.05811">
        <ele>2095</ele>
        <time>2015-08-10T08:52:25Z</time>
      </trkpt>
      <trkpt lat="42.85639" lon="-0.05813">
        <ele>2095</ele>
        <time>2015-08-10T08:52:38Z</time>
      </trkpt>
      <trkpt lat="42.85629" lon="-0.05815">
        <ele>2095</ele>
        <time>2015-08-10T08:52:59Z</time>
      </trkpt>
      <trkpt lat="42.8562" lon="-0.05818">
        <ele>2095</ele>
        <time>2015-08-10T08:53:33Z</time>
      </trkpt>
      <trkpt lat="42.85608" lon="-0.05822">
        <ele>2096</ele>
        <time>2015-08-10T08:53:50Z</time>
      </trkpt>
      <trkpt lat="42.856" lon="-0.05823">
        <ele>2096</ele>
        <time>2015-08-10T08:54:00Z</time>
      </trkpt>
      <trkpt lat="42.8559" lon="-0.0582">
        <ele>2097</ele>
        <time>2015-08-10T08:54:15Z</time>
      </trkpt>
      <trkpt lat="42.85581" lon="-0.05821">
        <ele>2099</ele>
        <time>2015-08-10T08:54:37Z</time>
      </trkpt>
      <trkpt lat="42.85572" lon="-0.05825">
        <ele>2099</ele>
        <time>2015-08-10T08:54:56Z</time>
      </trkpt>
      <trkpt lat="42.85564" lon="-0.05827">
        <ele>2100</ele>
        <time>2015-08-10T08:55:15Z</time>
      </trkpt>
      <trkpt lat="42.85555" lon="-0.05831">
        <ele>2100</ele>
        <time>2015-08-10T08:55:42Z</time>
      </trkpt>
      <trkpt lat="42.85543" lon="-0.05838">
        <ele>2109</ele>
        <time>2015-08-10T08:56:10Z</time>
      </trkpt>
      <trkpt lat="42.85534" lon="-0.05844">
        <ele>2109</ele>
        <time>2015-08-10T08:56:30Z</time>
      </trkpt>
      <trkpt lat="42.85525" lon="-0.05846">
        <ele>2110</ele>
        <time>2015-08-10T08:57:07Z</time>
      </trkpt>
      <trkpt lat="42.85515" lon="-0.0585">
        <ele>2110</ele>
        <time>2015-08-10T08:57:53Z</time>
      </trkpt>
      <trkpt lat="42.85505" lon="-0.05848">
        <ele>2110</ele>
        <time>2015-08-10T08:58:06Z</time>
      </trkpt>
      <trkpt lat="42.85496" lon="-0.05841">
        <ele>2112</ele>
        <time>2015-08-10T08:58:12Z</time>
      </trkpt>
      <trkpt lat="42.85487" lon="-0.05837">
        <ele>2114</ele>
        <time>2015-08-10T08:58:22Z</time>
      </trkpt>
      <trkpt lat="42.85477" lon="-0.05837">
        <ele>2115</ele>
        <time>2015-08-10T08:58:37Z</time>
      </trkpt>
      <trkpt lat="42.85469" lon="-0.05841">
        <ele>2117</ele>
        <time>2015-08-10T08:58:55Z</time>
      </trkpt>
      <trkpt lat="42.85465" lon="-0.05853">
        <ele>2118</ele>
        <time>2015-08-10T08:59:28Z</time>
      </trkpt>
      <trkpt lat="42.85456" lon="-0.05859">
        <ele>2119</ele>
        <time>2015-08-10T08:59:42Z</time>
      </trkpt>
      <trkpt lat="42.85447" lon="-0.05864">
        <ele>2120</ele>
        <time>2015-08-10T08:59:51Z</time>
      </trkpt>
      <trkpt lat="42.85439" lon="-0.05872">
        <ele>2121</ele>
        <time>2015-08-10T08:59:59Z</time>
      </trkpt>
      <trkpt lat="42.8543" lon="-0.05875">
        <ele>2121</ele>
        <time>2015-08-10T09:00:10Z</time>
      </trkpt>
      <trkpt lat="42.85421" lon="-0.05877">
        <ele>2122</ele>
        <time>2015-08-10T09:00:20Z</time>
      </trkpt>
      <trkpt lat="42.85411" lon="-0.05877">
        <ele>2131</ele>
        <time>2015-08-10T09:00:29Z</time>
      </trkpt>
      <trkpt lat="42.85403" lon="-0.05872">
        <ele>2131</ele>
        <time>2015-08-10T09:00:41Z</time>
      </trkpt>
      <trkpt lat="42.85393" lon="-0.05874">
        <ele>2132</ele>
        <time>2015-08-10T09:01:05Z</time>
      </trkpt>
      <trkpt lat="42.85386" lon="-0.05882">
        <ele>2133</ele>
        <time>2015-08-10T09:01:40Z</time>
      </trkpt>
      <trkpt lat="42.85374" lon="-0.05886">
        <ele>2135</ele>
        <time>2015-08-10T09:01:46Z</time>
      </trkpt>
      <trkpt lat="42.85365" lon="-0.05887">
        <ele>2136</ele>
        <time>2015-08-10T09:01:59Z</time>
      </trkpt>
      <trkpt lat="42.85358" lon="-0.05878">
        <ele>2136</ele>
        <time>2015-08-10T09:06:47Z</time>
      </trkpt>
      <trkpt lat="42.85353" lon="-0.05889">
        <ele>2137</ele>
        <time>2015-08-10T09:08:47Z</time>
      </trkpt>
      <trkpt lat="42.85347" lon="-0.05898">
        <ele>2139</ele>
        <time>2015-08-10T09:09:02Z</time>
      </trkpt>
      <trkpt lat="42.8534" lon="-0.05906">
        <ele>2142</ele>
        <time>2015-08-10T09:09:23Z</time>
      </trkpt>
      <trkpt lat="42.85332" lon="-0.05911">
        <ele>2151</ele>
        <time>2015-08-10T09:09:38Z</time>
      </trkpt>
      <trkpt lat="42.85325" lon="-0.05919">
        <ele>2156</ele>
        <time>2015-08-10T09:10:34Z</time>
      </trkpt>
      <trkpt lat="42.85318" lon="-0.05927">
        <ele>2162</ele>
        <time>2015-08-10T09:11:29Z</time>
      </trkpt>
      <trkpt lat="42.8531" lon="-0.05935">
        <ele>2167</ele>
        <time>2015-08-10T09:12:24Z</time>
      </trkpt>
      <trkpt lat="42.85302" lon="-0.0594">
        <ele>2170</ele>
        <time>2015-08-10T09:12:59Z</time>
      </trkpt>
      <trkpt lat="42.85293" lon="-0.05945">
        <ele>2173</ele>
        <time>2015-08-10T09:13:35Z</time>
      </trkpt>
      <trkpt lat="42.85284" lon="-0.05947">
        <ele>2175</ele>
        <time>2015-08-10T09:14:09Z</time>
      </trkpt>
      <trkpt lat="42.85275" lon="-0.05953">
        <ele>2177</ele>
        <time>2015-08-10T09:14:35Z</time>
      </trkpt>
      <trkpt lat="42.85267" lon="-0.05958">
        <ele>2178</ele>
        <time>2015-08-10T09:15:24Z</time>
      </trkpt>
      <trkpt lat="42.8526" lon="-0.05967">
        <ele>2181</ele>
        <time>2015-08-10T09:28:52Z</time>
      </trkpt>
      <trkpt lat="42.85255" lon="-0.05978">
        <ele>2184</ele>
        <time>2015-08-10T09:29:05Z</time>
      </trkpt>
      <trkpt lat="42.85248" lon="-0.05986">
        <ele>2201</ele>
        <time>2015-08-10T09:29:18Z</time>
      </trkpt>
      <trkpt lat="42.8524" lon="-0.05992">
        <ele>2201</ele>
        <time>2015-08-10T09:29:36Z</time>
      </trkpt>
      <trkpt lat="42.85233" lon="-0.06001">
        <ele>2211</ele>
        <time>2015-08-10T09:30:08Z</time>
      </trkpt>
      <trkpt lat="42.85225" lon="-0.06007">
        <ele>2216</ele>
        <time>2015-08-10T09:31:19Z</time>
      </trkpt>
      <trkpt lat="42.85219" lon="-0.06016">
        <ele>2220</ele>
        <time>2015-08-10T09:31:44Z</time>
      </trkpt>
      <trkpt lat="42.85214" lon="-0.06027">
        <ele>2224</ele>
        <time>2015-08-10T09:32:20Z</time>
      </trkpt>
      <trkpt lat="42.85209" lon="-0.06037">
        <ele>2226</ele>
        <time>2015-08-10T09:33:37Z</time>
      </trkpt>
      <trkpt lat="42.85202" lon="-0.06045">
        <ele>2229</ele>
        <time>2015-08-10T09:34:30Z</time>
      </trkpt>
      <trkpt lat="42.85193" lon="-0.06049">
        <ele>2231</ele>
        <time>2015-08-10T09:34:49Z</time>
      </trkpt>
      <trkpt lat="42.85185" lon="-0.06056">
        <ele>2234</ele>
        <time>2015-08-10T09:35:50Z</time>
      </trkpt>
      <trkpt lat="42.85183" lon="-0.06069">
        <ele>2237</ele>
        <time>2015-08-10T09:36:46Z</time>
      </trkpt>
      <trkpt lat="42.85176" lon="-0.06076">
        <ele>2242</ele>
        <time>2015-08-10T09:37:33Z</time>
      </trkpt>
      <trkpt lat="42.8517" lon="-0.06086">
        <ele>2253</ele>
        <time>2015-08-10T09:39:09Z</time>
      </trkpt>
      <trkpt lat="42.85163" lon="-0.06094">
        <ele>2265</ele>
        <time>2015-08-10T09:39:51Z</time>
      </trkpt>
      <trkpt lat="42.85154" lon="-0.06099">
        <ele>2274</ele>
        <time>2015-08-10T09:40:38Z</time>
      </trkpt>
      <trkpt lat="42.85146" lon="-0.06104">
        <ele>2280</ele>
        <time>2015-08-10T09:41:14Z</time>
      </trkpt>
      <trkpt lat="42.85137" lon="-0.06108">
        <ele>2285</ele>
        <time>2015-08-10T09:41:49Z</time>
      </trkpt>
      <trkpt lat="42.8513" lon="-0.06115">
        <ele>2289</ele>
        <time>2015-08-10T09:43:16Z</time>
      </trkpt>
      <trkpt lat="42.85121" lon="-0.06119">
        <ele>2292</ele>
        <time>2015-08-10T09:43:32Z</time>
      </trkpt>
      <trkpt lat="42.85116" lon="-0.06129">
        <ele>2295</ele>
        <time>2015-08-10T09:44:53Z</time>
      </trkpt>
      <trkpt lat="42.8511" lon="-0.06139">
        <ele>2300</ele>
        <time>2015-08-10T09:46:20Z</time>
      </trkpt>
      <trkpt lat="42.85101" lon="-0.06142">
        <ele>2303</ele>
        <time>2015-08-10T09:48:06Z</time>
      </trkpt>
      <trkpt lat="42.85092" lon="-0.06147">
        <ele>2308</ele>
        <time>2015-08-10T09:48:29Z</time>
      </trkpt>
      <trkpt lat="42.85093" lon="-0.06159">
        <ele>2314</ele>
        <time>2015-08-10T09:57:19Z</time>
      </trkpt>
      <trkpt lat="42.85087" lon="-0.06169">
        <ele>2331</ele>
        <time>2015-08-10T09:58:09Z</time>
      </trkpt>
      <trkpt lat="42.85079" lon="-0.06173">
        <ele>2339</ele>
        <time>2015-08-10T09:59:05Z</time>
      </trkpt>
      <trkpt lat="42.8507" lon="-0.06172">
        <ele>2346</ele>
        <time>2015-08-10T09:59:56Z</time>
      </trkpt>
      <trkpt lat="42.85062" lon="-0.0618">
        <ele>2354</ele>
        <time>2015-08-10T10:01:11Z</time>
      </trkpt>
      <trkpt lat="42.85055" lon="-0.06187">
        <ele>2360</ele>
        <time>2015-08-10T10:02:17Z</time>
      </trkpt>
      <trkpt lat="42.85046" lon="-0.06192">
        <ele>2363</ele>
        <time>2015-08-10T10:02:55Z</time>
      </trkpt>
      <trkpt lat="42.85037" lon="-0.06196">
        <ele>2366</ele>
        <time>2015-08-10T10:03:58Z</time>
      </trkpt>
      <trkpt lat="42.85029" lon="-0.06201">
        <ele>2368</ele>
        <time>2015-08-10T10:04:57Z</time>
      </trkpt>
      <trkpt lat="42.85022" lon="-0.06194">
        <ele>2368</ele>
        <time>2015-08-10T10:06:00Z</time>
      </trkpt>
      <trkpt lat="42.85013" lon="-0.06191">
        <ele>2368</ele>
        <time>2015-08-10T10:06:45Z</time>
      </trkpt>
      <trkpt lat="42.85004" lon="-0.06186">
        <ele>2368</ele>
        <time>2015-08-10T10:06:52Z</time>
      </trkpt>
      <trkpt lat="42.84998" lon="-0.06177">
        <ele>2372</ele>
        <time>2015-08-10T10:07:28Z</time>
      </trkpt>
      <trkpt lat="42.85004" lon="-0.06186">
        <ele>2368</ele>
        <time>2015-08-10T10:08:11Z</time>
      </trkpt>
      <trkpt lat="42.85008" lon="-0.06198">
        <ele>2369</ele>
        <time>2015-08-10T10:08:53Z</time>
      </trkpt>
      <trkpt lat="42.85007" lon="-0.0621">
        <ele>2372</ele>
        <time>2015-08-10T10:09:28Z</time>
      </trkpt>
      <trkpt lat="42.84997" lon="-0.06207">
        <ele>2382</ele>
        <time>2015-08-10T10:10:41Z</time>
      </trkpt>
      <trkpt lat="42.84991" lon="-0.06216">
        <ele>2383</ele>
        <time>2015-08-10T10:13:23Z</time>
      </trkpt>
      <trkpt lat="42.84984" lon="-0.06223">
        <ele>2385</ele>
        <time>2015-08-10T10:16:46Z</time>
      </trkpt>
      <trkpt lat="42.84976" lon="-0.06216">
        <ele>2384</ele>
        <time>2015-08-10T11:46:34Z</time>
      </trkpt>
      <trkpt lat="42.84967" lon="-0.06212">
        <ele>2384</ele>
        <time>2015-08-10T11:46:48Z</time>
      </trkpt>
      <trkpt lat="42.8496" lon="-0.06204">
        <ele>2383</ele>
        <time>2015-08-10T11:47:00Z</time>
      </trkpt>
      <trkpt lat="42.84953" lon="-0.06195">
        <ele>2383</ele>
        <time>2015-08-10T11:47:12Z</time>
      </trkpt>
      <trkpt lat="42.84948" lon="-0.06186">
        <ele>2383</ele>
        <time>2015-08-10T11:47:24Z</time>
      </trkpt>
      <trkpt lat="42.84942" lon="-0.06176">
        <ele>2383</ele>
        <time>2015-08-10T11:47:43Z</time>
      </trkpt>
      <trkpt lat="42.84932" lon="-0.06176">
        <ele>2384</ele>
        <time>2015-08-10T11:47:58Z</time>
      </trkpt>
      <trkpt lat="42.84924" lon="-0.06179">
        <ele>2385</ele>
        <time>2015-08-10T11:48:14Z</time>
      </trkpt>
      <trkpt lat="42.84914" lon="-0.06182">
        <ele>2389</ele>
        <time>2015-08-10T11:48:28Z</time>
      </trkpt>
      <trkpt lat="42.84905" lon="-0.06179">
        <ele>2390</ele>
        <time>2015-08-10T11:48:40Z</time>
      </trkpt>
      <trkpt lat="42.84896" lon="-0.06173">
        <ele>2390</ele>
        <time>2015-08-10T11:48:55Z</time>
      </trkpt>
      <trkpt lat="42.84889" lon="-0.06166">
        <ele>2391</ele>
        <time>2015-08-10T11:49:09Z</time>
      </trkpt>
      <trkpt lat="42.84882" lon="-0.06159">
        <ele>2391</ele>
        <time>2015-08-10T11:49:27Z</time>
      </trkpt>
      <trkpt lat="42.84873" lon="-0.06156">
        <ele>2392</ele>
        <time>2015-08-10T11:49:55Z</time>
      </trkpt>
      <trkpt lat="42.84865" lon="-0.06149">
        <ele>2393</ele>
        <time>2015-08-10T11:50:19Z</time>
      </trkpt>
      <trkpt lat="42.84856" lon="-0.06145">
        <ele>2393</ele>
        <time>2015-08-10T11:50:34Z</time>
      </trkpt>
      <trkpt lat="42.84847" lon="-0.06141">
        <ele>2394</ele>
        <time>2015-08-10T11:50:50Z</time>
      </trkpt>
      <trkpt lat="42.84837" lon="-0.06141">
        <ele>2394</ele>
        <time>2015-08-10T11:51:01Z</time>
      </trkpt>
      <trkpt lat="42.84828" lon="-0.06141">
        <ele>2399</ele>
        <time>2015-08-10T11:51:21Z</time>
      </trkpt>
      <trkpt lat="42.84819" lon="-0.06139">
        <ele>2400</ele>
        <time>2015-08-10T11:51:32Z</time>
      </trkpt>
      <trkpt lat="42.8481" lon="-0.06134">
        <ele>2401</ele>
        <time>2015-08-10T11:51:43Z</time>
      </trkpt>
      <trkpt lat="42.848" lon="-0.06132">
        <ele>2401</ele>
        <time>2015-08-10T11:51:58Z</time>
      </trkpt>
      <trkpt lat="42.84792" lon="-0.06127">
        <ele>2402</ele>
        <time>2015-08-10T11:52:16Z</time>
      </trkpt>
      <trkpt lat="42.84783" lon="-0.06125">
        <ele>2403</ele>
        <time>2015-08-10T11:52:39Z</time>
      </trkpt>
      <trkpt lat="42.84778" lon="-0.06135">
        <ele>2403</ele>
        <time>2015-08-10T11:53:03Z</time>
      </trkpt>
      <trkpt lat="42.84769" lon="-0.06138">
        <ele>2404</ele>
        <time>2015-08-10T11:53:17Z</time>
      </trkpt>
      <trkpt lat="42.8476" lon="-0.06138">
        <ele>2404</ele>
        <time>2015-08-10T11:53:33Z</time>
      </trkpt>
      <trkpt lat="42.84751" lon="-0.06143">
        <ele>2404</ele>
        <time>2015-08-10T11:54:06Z</time>
      </trkpt>
      <trkpt lat="42.84742" lon="-0.06147">
        <ele>2411</ele>
        <time>2015-08-10T11:54:23Z</time>
      </trkpt>
      <trkpt lat="42.84733" lon="-0.06147">
        <ele>2411</ele>
        <time>2015-08-10T11:54:38Z</time>
      </trkpt>
      <trkpt lat="42.84724" lon="-0.06146">
        <ele>2412</ele>
        <time>2015-08-10T11:54:59Z</time>
      </trkpt>
      <trkpt lat="42.84719" lon="-0.06157">
        <ele>2412</ele>
        <time>2015-08-10T11:55:53Z</time>
      </trkpt>
      <trkpt lat="42.84713" lon="-0.06166">
        <ele>2412</ele>
        <time>2015-08-10T11:56:03Z</time>
      </trkpt>
      <trkpt lat="42.84712" lon="-0.06179">
        <ele>2412</ele>
        <time>2015-08-10T11:59:04Z</time>
      </trkpt>
      <trkpt lat="42.84717" lon="-0.06189">
        <ele>2412</ele>
        <time>2015-08-10T11:59:18Z</time>
      </trkpt>
      <trkpt lat="42.84717" lon="-0.06202">
        <ele>2412</ele>
        <time>2015-08-10T11:59:41Z</time>
      </trkpt>
      <trkpt lat="42.84718" lon="-0.06214">
        <ele>2413</ele>
        <time>2015-08-10T12:00:07Z</time>
      </trkpt>
      <trkpt lat="42.84717" lon="-0.06226">
        <ele>2413</ele>
        <time>2015-08-10T12:00:33Z</time>
      </trkpt>
      <trkpt lat="42.84709" lon="-0.06234">
        <ele>2413</ele>
        <time>2015-08-10T12:00:54Z</time>
      </trkpt>
      <trkpt lat="42.84704" lon="-0.06244">
        <ele>2413</ele>
        <time>2015-08-10T12:01:12Z</time>
      </trkpt>
      <trkpt lat="42.84704" lon="-0.06256">
        <ele>2418</ele>
        <time>2015-08-10T12:01:33Z</time>
      </trkpt>
      <trkpt lat="42.84702" lon="-0.06268">
        <ele>2419</ele>
        <time>2015-08-10T12:01:47Z</time>
      </trkpt>
      <trkpt lat="42.84709" lon="-0.06275">
        <ele>2419</ele>
        <time>2015-08-10T12:02:18Z</time>
      </trkpt>
      <trkpt lat="42.84717" lon="-0.06284">
        <ele>2420</ele>
        <time>2015-08-10T12:02:33Z</time>
      </trkpt>
      <trkpt lat="42.84725" lon="-0.06291">
        <ele>2421</ele>
        <time>2015-08-10T12:02:45Z</time>
      </trkpt>
      <trkpt lat="42.84729" lon="-0.06302">
        <ele>2422</ele>
        <time>2015-08-10T12:02:55Z</time>
      </trkpt>
      <trkpt lat="42.84731" lon="-0.06314">
        <ele>2423</ele>
        <time>2015-08-10T12:03:19Z</time>
      </trkpt>
      <trkpt lat="42.84727" lon="-0.06325">
        <ele>2424</ele>
        <time>2015-08-10T12:03:45Z</time>
      </trkpt>
      <trkpt lat="42.84721" lon="-0.06335">
        <ele>2434</ele>
        <time>2015-08-10T12:04:09Z</time>
      </trkpt>
      <trkpt lat="42.84718" lon="-0.06347">
        <ele>2435</ele>
        <time>2015-08-10T12:04:24Z</time>
      </trkpt>
      <trkpt lat="42.84711" lon="-0.06355">
        <ele>2436</ele>
        <time>2015-08-10T12:04:42Z</time>
      </trkpt>
      <trkpt lat="42.84703" lon="-0.06359">
        <ele>2436</ele>
        <time>2015-08-10T12:04:55Z</time>
      </trkpt>
      <trkpt lat="42.84693" lon="-0.06362">
        <ele>2436</ele>
        <time>2015-08-10T12:05:13Z</time>
      </trkpt>
      <trkpt lat="42.84689" lon="-0.06373">
        <ele>2438</ele>
        <time>2015-08-10T12:05:48Z</time>
      </trkpt>
      <trkpt lat="42.84685" lon="-0.06384">
        <ele>2439</ele>
        <time>2015-08-10T12:06:25Z</time>
      </trkpt>
      <trkpt lat="42.84678" lon="-0.06392">
        <ele>2441</ele>
        <time>2015-08-10T12:07:00Z</time>
      </trkpt>
      <trkpt lat="42.8467" lon="-0.06398">
        <ele>2442</ele>
        <time>2015-08-10T12:07:19Z</time>
      </trkpt>
      <trkpt lat="42.84666" lon="-0.06409">
        <ele>2444</ele>
        <time>2015-08-10T12:08:06Z</time>
      </trkpt>
      <trkpt lat="42.84666" lon="-0.06422">
        <ele>2448</ele>
        <time>2015-08-10T12:08:39Z</time>
      </trkpt>
      <trkpt lat="42.84661" lon="-0.06433">
        <ele>2449</ele>
        <time>2015-08-10T12:09:03Z</time>
      </trkpt>
      <trkpt lat="42.8466" lon="-0.06446">
        <ele>2449</ele>
        <time>2015-08-10T12:09:25Z</time>
      </trkpt>
      <trkpt lat="42.84659" lon="-0.06458">
        <ele>2450</ele>
        <time>2015-08-10T12:09:55Z</time>
      </trkpt>
      <trkpt lat="42.84653" lon="-0.06468">
        <ele>2450</ele>
        <time>2015-08-10T12:10:11Z</time>
      </trkpt>
      <trkpt lat="42.84648" lon="-0.06479">
        <ele>2450</ele>
        <time>2015-08-10T12:10:31Z</time>
      </trkpt>
      <trkpt lat="42.84651" lon="-0.06492">
        <ele>2451</ele>
        <time>2015-08-10T12:10:47Z</time>
      </trkpt>
      <trkpt lat="42.84644" lon="-0.06501">
        <ele>2451</ele>
        <time>2015-08-10T12:11:04Z</time>
      </trkpt>
      <trkpt lat="42.8464" lon="-0.06511">
        <ele>2451</ele>
        <time>2015-08-10T12:11:32Z</time>
      </trkpt>
      <trkpt lat="42.84638" lon="-0.06524">
        <ele>2450</ele>
        <time>2015-08-10T12:11:48Z</time>
      </trkpt>
      <trkpt lat="42.84633" lon="-0.06534">
        <ele>2450</ele>
        <time>2015-08-10T12:12:00Z</time>
      </trkpt>
      <trkpt lat="42.84629" lon="-0.06546">
        <ele>2450</ele>
        <time>2015-08-10T12:12:20Z</time>
      </trkpt>
      <trkpt lat="42.8462" lon="-0.06544">
        <ele>2450</ele>
        <time>2015-08-10T12:30:47Z</time>
      </trkpt>
      <trkpt lat="42.8461" lon="-0.06545">
        <ele>2450</ele>
        <time>2015-08-10T12:32:14Z</time>
      </trkpt>
      <trkpt lat="42.84601" lon="-0.06546">
        <ele>2450</ele>
        <time>2015-08-10T12:32:27Z</time>
      </trkpt>
      <trkpt lat="42.84593" lon="-0.06553">
        <ele>2450</ele>
        <time>2015-08-10T12:32:44Z</time>
      </trkpt>
      <trkpt lat="42.84585" lon="-0.06547">
        <ele>2450</ele>
        <time>2015-08-10T12:32:58Z</time>
      </trkpt>
      <trkpt lat="42.84575" lon="-0.06548">
        <ele>2450</ele>
        <time>2015-08-10T12:33:13Z</time>
      </trkpt>
      <trkpt lat="42.84566" lon="-0.0655">
        <ele>2450</ele>
        <time>2015-08-10T12:33:24Z</time>
      </trkpt>
      <trkpt lat="42.84556" lon="-0.06551">
        <ele>2450</ele>
        <time>2015-08-10T12:33:34Z</time>
      </trkpt>
      <trkpt lat="42.84547" lon="-0.06554">
        <ele>2450</ele>
        <time>2015-08-10T12:33:47Z</time>
      </trkpt>
      <trkpt lat="42.84537" lon="-0.06559">
        <ele>2450</ele>
        <time>2015-08-10T12:34:02Z</time>
      </trkpt>
      <trkpt lat="42.84528" lon="-0.06555">
        <ele>2450</ele>
        <time>2015-08-10T12:35:47Z</time>
      </trkpt>
      <trkpt lat="42.84519" lon="-0.06553">
        <ele>2449</ele>
        <time>2015-08-10T12:35:59Z</time>
      </trkpt>
      <trkpt lat="42.8451" lon="-0.06551">
        <ele>2449</ele>
        <time>2015-08-10T12:36:15Z</time>
      </trkpt>
      <trkpt lat="42.84501" lon="-0.06553">
        <ele>2449</ele>
        <time>2015-08-10T12:36:39Z</time>
      </trkpt>
      <trkpt lat="42.84492" lon="-0.06558">
        <ele>2445</ele>
        <time>2015-08-10T12:37:03Z</time>
      </trkpt>
      <trkpt lat="42.84483" lon="-0.06559">
        <ele>2445</ele>
        <time>2015-08-10T12:37:21Z</time>
      </trkpt>
      <trkpt lat="42.84474" lon="-0.06564">
        <ele>2445</ele>
        <time>2015-08-10T12:37:31Z</time>
      </trkpt>
      <trkpt lat="42.84465" lon="-0.06563">
        <ele>2444</ele>
        <time>2015-08-10T12:37:40Z</time>
      </trkpt>
      <trkpt lat="42.84455" lon="-0.06557">
        <ele>2443</ele>
        <time>2015-08-10T12:37:55Z</time>
      </trkpt>
      <trkpt lat="42.84446" lon="-0.06556">
        <ele>2443</ele>
        <time>2015-08-10T12:38:04Z</time>
      </trkpt>
      <trkpt lat="42.84437" lon="-0.06558">
        <ele>2442</ele>
        <time>2015-08-10T12:38:17Z</time>
      </trkpt>
      <trkpt lat="42.84428" lon="-0.06559">
        <ele>2441</ele>
        <time>2015-08-10T12:38:36Z</time>
      </trkpt>
      <trkpt lat="42.84418" lon="-0.06558">
        <ele>2441</ele>
        <time>2015-08-10T12:38:47Z</time>
      </trkpt>
      <trkpt lat="42.84409" lon="-0.06555">
        <ele>2440</ele>
        <time>2015-08-10T12:38:57Z</time>
      </trkpt>
      <trkpt lat="42.84401" lon="-0.06562">
        <ele>2440</ele>
        <time>2015-08-10T12:39:28Z</time>
      </trkpt>
      <trkpt lat="42.84392" lon="-0.06557">
        <ele>2440</ele>
        <time>2015-08-10T12:39:37Z</time>
      </trkpt>
      <trkpt lat="42.84383" lon="-0.06553">
        <ele>2441</ele>
        <time>2015-08-10T12:39:51Z</time>
      </trkpt>
      <trkpt lat="42.84374" lon="-0.06548">
        <ele>2441</ele>
        <time>2015-08-10T12:40:16Z</time>
      </trkpt>
      <trkpt lat="42.84365" lon="-0.06551">
        <ele>2441</ele>
        <time>2015-08-10T12:40:22Z</time>
      </trkpt>
      <trkpt lat="42.84356" lon="-0.06548">
        <ele>2442</ele>
        <time>2015-08-10T12:40:49Z</time>
      </trkpt>
      <trkpt lat="42.84347" lon="-0.0655">
        <ele>2442</ele>
        <time>2015-08-10T12:41:12Z</time>
      </trkpt>
      <trkpt lat="42.84337" lon="-0.0655">
        <ele>2442</ele>
        <time>2015-08-10T12:41:24Z</time>
      </trkpt>
      <trkpt lat="42.84327" lon="-0.06552">
        <ele>2446</ele>
        <time>2015-08-10T12:41:33Z</time>
      </trkpt>
      <trkpt lat="42.8432" lon="-0.06559">
        <ele>2445</ele>
        <time>2015-08-10T12:41:58Z</time>
      </trkpt>
      <trkpt lat="42.84308" lon="-0.06565">
        <ele>2446</ele>
        <time>2015-08-10T12:42:13Z</time>
      </trkpt>
      <trkpt lat="42.843" lon="-0.06572">
        <ele>2446</ele>
        <time>2015-08-10T12:42:26Z</time>
      </trkpt>
      <trkpt lat="42.84291" lon="-0.06573">
        <ele>2447</ele>
        <time>2015-08-10T12:42:35Z</time>
      </trkpt>
      <trkpt lat="42.84284" lon="-0.06581">
        <ele>2448</ele>
        <time>2015-08-10T12:43:42Z</time>
      </trkpt>
      <trkpt lat="42.84276" lon="-0.06587">
        <ele>2446</ele>
        <time>2015-08-10T12:43:58Z</time>
      </trkpt>
      <trkpt lat="42.84267" lon="-0.06592">
        <ele>2447</ele>
        <time>2015-08-10T12:44:12Z</time>
      </trkpt>
      <trkpt lat="42.84268" lon="-0.0658">
        <ele>2448</ele>
        <time>2015-08-10T13:07:16Z</time>
      </trkpt>
      <trkpt lat="42.84275" lon="-0.06573">
        <ele>2448</ele>
        <time>2015-08-10T13:07:38Z</time>
      </trkpt>
      <trkpt lat="42.84283" lon="-0.06566">
        <ele>2448</ele>
        <time>2015-08-10T13:08:01Z</time>
      </trkpt>
      <trkpt lat="42.84292" lon="-0.06562">
        <ele>2448</ele>
        <time>2015-08-10T13:08:17Z</time>
      </trkpt>
      <trkpt lat="42.84301" lon="-0.06563">
        <ele>2447</ele>
        <time>2015-08-10T13:08:30Z</time>
      </trkpt>
      <trkpt lat="42.84312" lon="-0.06558">
        <ele>2447</ele>
        <time>2015-08-10T13:08:51Z</time>
      </trkpt>
      <trkpt lat="42.84321" lon="-0.06554">
        <ele>2446</ele>
        <time>2015-08-10T13:09:36Z</time>
      </trkpt>
      <trkpt lat="42.84326" lon="-0.06543">
        <ele>2448</ele>
        <time>2015-08-10T13:09:54Z</time>
      </trkpt>
      <trkpt lat="42.84335" lon="-0.06541">
        <ele>2443</ele>
        <time>2015-08-10T13:10:12Z</time>
      </trkpt>
      <trkpt lat="42.84345" lon="-0.0654">
        <ele>2443</ele>
        <time>2015-08-10T13:10:24Z</time>
      </trkpt>
      <trkpt lat="42.84353" lon="-0.06547">
        <ele>2442</ele>
        <time>2015-08-10T13:10:59Z</time>
      </trkpt>
      <trkpt lat="42.84362" lon="-0.06545">
        <ele>2442</ele>
        <time>2015-08-10T13:11:14Z</time>
      </trkpt>
      <trkpt lat="42.84374" lon="-0.0654">
        <ele>2442</ele>
        <time>2015-08-10T13:12:31Z</time>
      </trkpt>
      <trkpt lat="42.84384" lon="-0.06542">
        <ele>2442</ele>
        <time>2015-08-10T13:12:51Z</time>
      </trkpt>
      <trkpt lat="42.84392" lon="-0.06547">
        <ele>2441</ele>
        <time>2015-08-10T13:13:06Z</time>
      </trkpt>
      <trkpt lat="42.844" lon="-0.06552">
        <ele>2440</ele>
        <time>2015-08-10T13:13:20Z</time>
      </trkpt>
      <trkpt lat="42.84408" lon="-0.06545">
        <ele>2441</ele>
        <time>2015-08-10T13:13:41Z</time>
      </trkpt>
      <trkpt lat="42.84418" lon="-0.06542">
        <ele>2442</ele>
        <time>2015-08-10T13:14:03Z</time>
      </trkpt>
      <trkpt lat="42.84426" lon="-0.06536">
        <ele>2443</ele>
        <time>2015-08-10T13:14:14Z</time>
      </trkpt>
      <trkpt lat="42.84436" lon="-0.06536">
        <ele>2443</ele>
        <time>2015-08-10T13:14:27Z</time>
      </trkpt>
      <trkpt lat="42.84443" lon="-0.06542">
        <ele>2443</ele>
        <time>2015-08-10T13:14:39Z</time>
      </trkpt>
      <trkpt lat="42.84452" lon="-0.0654">
        <ele>2444</ele>
        <time>2015-08-10T13:14:50Z</time>
      </trkpt>
      <trkpt lat="42.84462" lon="-0.06541">
        <ele>2444</ele>
        <time>2015-08-10T13:15:01Z</time>
      </trkpt>
      <trkpt lat="42.84471" lon="-0.06541">
        <ele>2445</ele>
        <time>2015-08-10T13:15:11Z</time>
      </trkpt>
      <trkpt lat="42.84481" lon="-0.06539">
        <ele>2445</ele>
        <time>2015-08-10T13:15:22Z</time>
      </trkpt>
      <trkpt lat="42.8449" lon="-0.06537">
        <ele>2446</ele>
        <time>2015-08-10T13:15:31Z</time>
      </trkpt>
      <trkpt lat="42.84499" lon="-0.06538">
        <ele>2446</ele>
        <time>2015-08-10T13:15:45Z</time>
      </trkpt>
      <trkpt lat="42.84507" lon="-0.06533">
        <ele>2450</ele>
        <time>2015-08-10T13:16:18Z</time>
      </trkpt>
      <trkpt lat="42.84516" lon="-0.06531">
        <ele>2450</ele>
        <time>2015-08-10T13:16:35Z</time>
      </trkpt>
      <trkpt lat="42.84525" lon="-0.06529">
        <ele>2450</ele>
        <time>2015-08-10T13:16:48Z</time>
      </trkpt>
      <trkpt lat="42.84535" lon="-0.06531">
        <ele>2450</ele>
        <time>2015-08-10T13:17:13Z</time>
      </trkpt>
      <trkpt lat="42.84544" lon="-0.06531">
        <ele>2450</ele>
        <time>2015-08-10T13:17:25Z</time>
      </trkpt>
      <trkpt lat="42.84551" lon="-0.06539">
        <ele>2450</ele>
        <time>2015-08-10T13:17:52Z</time>
      </trkpt>
      <trkpt lat="42.8456" lon="-0.0654">
        <ele>2450</ele>
        <time>2015-08-10T13:18:12Z</time>
      </trkpt>
      <trkpt lat="42.8457" lon="-0.0654">
        <ele>2450</ele>
        <time>2015-08-10T13:18:26Z</time>
      </trkpt>
      <trkpt lat="42.84579" lon="-0.06539">
        <ele>2450</ele>
        <time>2015-08-10T13:18:43Z</time>
      </trkpt>
      <trkpt lat="42.84588" lon="-0.06539">
        <ele>2450</ele>
        <time>2015-08-10T13:18:58Z</time>
      </trkpt>
      <trkpt lat="42.84597" lon="-0.06543">
        <ele>2450</ele>
        <time>2015-08-10T13:19:10Z</time>
      </trkpt>
      <trkpt lat="42.84607" lon="-0.06541">
        <ele>2450</ele>
        <time>2015-08-10T13:19:26Z</time>
      </trkpt>
      <trkpt lat="42.84616" lon="-0.06538">
        <ele>2450</ele>
        <time>2015-08-10T13:19:39Z</time>
      </trkpt>
      <trkpt lat="42.84625" lon="-0.06537">
        <ele>2450</ele>
        <time>2015-08-10T13:28:58Z</time>
      </trkpt>
      <trkpt lat="42.8463" lon="-0.06526">
        <ele>2450</ele>
        <time>2015-08-10T13:29:08Z</time>
      </trkpt>
      <trkpt lat="42.84631" lon="-0.06513">
        <ele>2451</ele>
        <time>2015-08-10T13:29:24Z</time>
      </trkpt>
      <trkpt lat="42.84635" lon="-0.06502">
        <ele>2451</ele>
        <time>2015-08-10T13:29:48Z</time>
      </trkpt>
      <trkpt lat="42.84639" lon="-0.06491">
        <ele>2450</ele>
        <time>2015-08-10T13:30:07Z</time>
      </trkpt>
      <trkpt lat="42.84644" lon="-0.0648">
        <ele>2450</ele>
        <time>2015-08-10T13:30:22Z</time>
      </trkpt>
      <trkpt lat="42.84648" lon="-0.06469">
        <ele>2450</ele>
        <time>2015-08-10T13:30:38Z</time>
      </trkpt>
      <trkpt lat="42.84653" lon="-0.06459">
        <ele>2449</ele>
        <time>2015-08-10T13:30:48Z</time>
      </trkpt>
      <trkpt lat="42.84655" lon="-0.06446">
        <ele>2449</ele>
        <time>2015-08-10T13:31:09Z</time>
      </trkpt>
      <trkpt lat="42.84657" lon="-0.06434">
        <ele>2449</ele>
        <time>2015-08-10T13:31:19Z</time>
      </trkpt>
      <trkpt lat="42.84663" lon="-0.06424">
        <ele>2448</ele>
        <time>2015-08-10T13:31:30Z</time>
      </trkpt>
      <trkpt lat="42.84664" lon="-0.06411">
        <ele>2445</ele>
        <time>2015-08-10T13:32:03Z</time>
      </trkpt>
      <trkpt lat="42.84666" lon="-0.06399">
        <ele>2441</ele>
        <time>2015-08-10T13:32:26Z</time>
      </trkpt>
      <trkpt lat="42.84673" lon="-0.0639">
        <ele>2441</ele>
        <time>2015-08-10T13:32:47Z</time>
      </trkpt>
      <trkpt lat="42.84681" lon="-0.06385">
        <ele>2440</ele>
        <time>2015-08-10T13:33:08Z</time>
      </trkpt>
      <trkpt lat="42.84687" lon="-0.06376">
        <ele>2438</ele>
        <time>2015-08-10T13:33:21Z</time>
      </trkpt>
      <trkpt lat="42.8469" lon="-0.06364">
        <ele>2436</ele>
        <time>2015-08-10T13:33:45Z</time>
      </trkpt>
      <trkpt lat="42.84697" lon="-0.06356">
        <ele>2435</ele>
        <time>2015-08-10T13:34:04Z</time>
      </trkpt>
      <trkpt lat="42.84705" lon="-0.06351">
        <ele>2435</ele>
        <time>2015-08-10T13:34:15Z</time>
      </trkpt>
      <trkpt lat="42.84713" lon="-0.06344">
        <ele>2435</ele>
        <time>2015-08-10T13:34:28Z</time>
      </trkpt>
      <trkpt lat="42.84719" lon="-0.06333">
        <ele>2424</ele>
        <time>2015-08-10T13:34:44Z</time>
      </trkpt>
      <trkpt lat="42.84724" lon="-0.06322">
        <ele>2423</ele>
        <time>2015-08-10T13:34:57Z</time>
      </trkpt>
      <trkpt lat="42.84725" lon="-0.0631">
        <ele>2422</ele>
        <time>2015-08-10T13:35:13Z</time>
      </trkpt>
      <trkpt lat="42.84721" lon="-0.06298">
        <ele>2421</ele>
        <time>2015-08-10T13:35:24Z</time>
      </trkpt>
      <trkpt lat="42.84715" lon="-0.06289">
        <ele>2420</ele>
        <time>2015-08-10T13:35:36Z</time>
      </trkpt>
      <trkpt lat="42.84715" lon="-0.06276">
        <ele>2419</ele>
        <time>2015-08-10T13:35:44Z</time>
      </trkpt>
      <trkpt lat="42.8471" lon="-0.06265">
        <ele>2419</ele>
        <time>2015-08-10T13:36:02Z</time>
      </trkpt>
      <trkpt lat="42.84702" lon="-0.06258">
        <ele>2418</ele>
        <time>2015-08-10T13:36:15Z</time>
      </trkpt>
      <trkpt lat="42.847" lon="-0.06244">
        <ele>2413</ele>
        <time>2015-08-10T13:36:30Z</time>
      </trkpt>
      <trkpt lat="42.84697" lon="-0.06232">
        <ele>2413</ele>
        <time>2015-08-10T13:36:41Z</time>
      </trkpt>
      <trkpt lat="42.84703" lon="-0.06222">
        <ele>2413</ele>
        <time>2015-08-10T13:37:06Z</time>
      </trkpt>
      <trkpt lat="42.84707" lon="-0.0621">
        <ele>2413</ele>
        <time>2015-08-10T13:37:30Z</time>
      </trkpt>
      <trkpt lat="42.84713" lon="-0.06201">
        <ele>2412</ele>
        <time>2015-08-10T13:37:50Z</time>
      </trkpt>
      <trkpt lat="42.84718" lon="-0.0619">
        <ele>2412</ele>
        <time>2015-08-10T13:38:10Z</time>
      </trkpt>
      <trkpt lat="42.84722" lon="-0.06179">
        <ele>2411</ele>
        <time>2015-08-10T13:38:25Z</time>
      </trkpt>
      <trkpt lat="42.84726" lon="-0.06167">
        <ele>2411</ele>
        <time>2015-08-10T13:38:53Z</time>
      </trkpt>
      <trkpt lat="42.84729" lon="-0.06155">
        <ele>2411</ele>
        <time>2015-08-10T13:39:13Z</time>
      </trkpt>
      <trkpt lat="42.84736" lon="-0.06146">
        <ele>2411</ele>
        <time>2015-08-10T13:40:07Z</time>
      </trkpt>
      <trkpt lat="42.84742" lon="-0.06137">
        <ele>2411</ele>
        <time>2015-08-10T13:40:17Z</time>
      </trkpt>
      <trkpt lat="42.84752" lon="-0.06136">
        <ele>2404</ele>
        <time>2015-08-10T13:40:30Z</time>
      </trkpt>
      <trkpt lat="42.84761" lon="-0.06136">
        <ele>2404</ele>
        <time>2015-08-10T13:40:43Z</time>
      </trkpt>
      <trkpt lat="42.8477" lon="-0.06137">
        <ele>2403</ele>
        <time>2015-08-10T13:40:54Z</time>
      </trkpt>
      <trkpt lat="42.84779" lon="-0.06132">
        <ele>2403</ele>
        <time>2015-08-10T13:41:03Z</time>
      </trkpt>
      <trkpt lat="42.84784" lon="-0.06121">
        <ele>2403</ele>
        <time>2015-08-10T13:41:15Z</time>
      </trkpt>
      <trkpt lat="42.84793" lon="-0.06117">
        <ele>2402</ele>
        <time>2015-08-10T13:41:26Z</time>
      </trkpt>
      <trkpt lat="42.84802" lon="-0.0612">
        <ele>2401</ele>
        <time>2015-08-10T13:41:39Z</time>
      </trkpt>
      <trkpt lat="42.8481" lon="-0.06126">
        <ele>2401</ele>
        <time>2015-08-10T13:41:47Z</time>
      </trkpt>
      <trkpt lat="42.84819" lon="-0.06131">
        <ele>2400</ele>
        <time>2015-08-10T13:41:54Z</time>
      </trkpt>
      <trkpt lat="42.84827" lon="-0.06136">
        <ele>2400</ele>
        <time>2015-08-10T13:42:04Z</time>
      </trkpt>
      <trkpt lat="42.84836" lon="-0.06137">
        <ele>2394</ele>
        <time>2015-08-10T13:42:17Z</time>
      </trkpt>
      <trkpt lat="42.84845" lon="-0.06136">
        <ele>2394</ele>
        <time>2015-08-10T13:42:26Z</time>
      </trkpt>
      <trkpt lat="42.84855" lon="-0.06138">
        <ele>2393</ele>
        <time>2015-08-10T13:42:37Z</time>
      </trkpt>
      <trkpt lat="42.84864" lon="-0.06142">
        <ele>2393</ele>
        <time>2015-08-10T13:42:47Z</time>
      </trkpt>
      <trkpt lat="42.84871" lon="-0.06149">
        <ele>2392</ele>
        <time>2015-08-10T13:42:56Z</time>
      </trkpt>
      <trkpt lat="42.8488" lon="-0.06153">
        <ele>2392</ele>
        <time>2015-08-10T13:43:13Z</time>
      </trkpt>
      <trkpt lat="42.84889" lon="-0.06155">
        <ele>2391</ele>
        <time>2015-08-10T13:43:33Z</time>
      </trkpt>
      <trkpt lat="42.84898" lon="-0.06159">
        <ele>2390</ele>
        <time>2015-08-10T13:43:45Z</time>
      </trkpt>
    </trkseg>
  </trk>
</gpx>